sensor_id;sensor_type;location;lat;lon;timestamp;temperature;humidity
46037;DHT22;31769;49.304;8.428;2023-01-26T00:03:00;2.70;99.90
46037;DHT22;31769;49.304;8.428;2023-01-26T00:06:09;2.60;99.90
46037;DHT22;31769;49.304;8.428;2023-01-26T00:09:12;2.60;99.90
46037;DHT22;31769;49.304;8.428;2023-01-26T00:12:14;2.50;99.90
46037;DHT22;31769;49.304;8.428;2023-01-26T00:15:14;2.50;99.90
46037;DHT22;31769;49.304;8.428;2023-01-26T00:18:15;2.50;99.90
46037;DHT22;31769;49.304;8.428;2023-01-26T00:21:19;2.50;99.90
46037;DHT22;31769;49.304;8.428;2023-01-26T00:24:20;2.40;99.90
46037;DHT22;31769;49.304;8.428;2023-01-26T00:27:20;2.40;99.90
46037;DHT22;31769;49.304;8.428;2023-01-26T00:30:21;2.30;99.90
46037;DHT22;31769;49.304;8.428;2023-01-26T00:33:22;2.30;99.90
46037;DHT22;31769;49.304;8.428;2023-01-26T00:36:23;2.20;99.90
46037;DHT22;31769;49.304;8.428;2023-01-26T00:39:23;2.20;99.90
46037;DHT22;31769;49.304;8.428;2023-01-26T00:42:24;2.20;99.90
46037;DHT22;31769;49.304;8.428;2023-01-26T00:45:25;2.20;99.90
46037;DHT22;31769;49.304;8.428;2023-01-26T00:48:27;2.20;99.90
46037;DHT22;31769;49.304;8.428;2023-01-26T00:51:27;2.20;99.90
46037;DHT22;31769;49.304;8.428;2023-01-26T00:54:29;2.10;99.90
46037;DHT22;31769;49.304;8.428;2023-01-26T00:57:29;2.10;99.90
46037;DHT22;31769;49.304;8.428;2023-01-26T01:00:31;2.20;99.90
46037;DHT22;31769;49.304;8.428;2023-01-26T01:03:32;2.30;99.90
46037;DHT22;31769;49.304;8.428;2023-01-26T01:06:33;2.20;99.90
46037;DHT22;31769;49.304;8.428;2023-01-26T01:09:34;2.30;99.90
46037;DHT22;31769;49.304;8.428;2023-01-26T01:12:34;2.30;99.90
46037;DHT22;31769;49.304;8.428;2023-01-26T01:15:37;2.20;99.90
46037;DHT22;31769;49.304;8.428;2023-01-26T01:18:38;2.20;99.90
46037;DHT22;31769;49.304;8.428;2023-01-26T01:21:39;2.30;99.90
46037;DHT22;31769;49.304;8.428;2023-01-26T01:24:39;2.30;99.90
46037;DHT22;31769;49.304;8.428;2023-01-26T01:27:40;2.20;99.90
46037;DHT22;31769;49.304;8.428;2023-01-26T01:30:41;2.20;99.90
46037;DHT22;31769;49.304;8.428;2023-01-26T01:33:42;2.20;99.90
46037;DHT22;31769;49.304;8.428;2023-01-26T01:36:42;2.20;99.90
46037;DHT22;31769;49.304;8.428;2023-01-26T01:39:43;2.20;99.90
46037;DHT22;31769;49.304;8.428;2023-01-26T01:42:47;2.20;99.90
46037;DHT22;31769;49.304;8.428;2023-01-26T01:45:51;2.20;99.90
46037;DHT22;31769;49.304;8.428;2023-01-26T01:48:58;2.20;99.90
46037;DHT22;31769;49.304;8.428;2023-01-26T01:52:17;2.30;99.90
46037;DHT22;31769;49.304;8.428;2023-01-26T01:55:19;2.20;99.90
46037;DHT22;31769;49.304;8.428;2023-01-26T01:58:20;2.20;99.90
46037;DHT22;31769;49.304;8.428;2023-01-26T02:01:21;2.20;99.90
46037;DHT22;31769;49.304;8.428;2023-01-26T02:04:23;2.20;99.90
46037;DHT22;31769;49.304;8.428;2023-01-26T02:07:24;2.20;99.90
46037;DHT22;31769;49.304;8.428;2023-01-26T02:10:25;2.20;99.90
46037;DHT22;31769;49.304;8.428;2023-01-26T02:13:27;2.30;99.90
46037;DHT22;31769;49.304;8.428;2023-01-26T02:16:29;2.30;99.90
46037;DHT22;31769;49.304;8.428;2023-01-26T02:22:55;2.40;99.90
46037;DHT22;31769;49.304;8.428;2023-01-26T02:29:09;2.30;99.90
46037;DHT22;31769;49.304;8.428;2023-01-26T02:32:15;2.20;99.90
46037;DHT22;31769;49.304;8.428;2023-01-26T02:35:15;2.20;99.90
46037;DHT22;31769;49.304;8.428;2023-01-26T02:38:18;2.10;99.90
46037;DHT22;31769;49.304;8.428;2023-01-26T02:41:19;2.10;99.90
46037;DHT22;31769;49.304;8.428;2023-01-26T02:44:39;2.10;99.90
46037;DHT22;31769;49.304;8.428;2023-01-26T02:47:41;2.10;99.90
46037;DHT22;31769;49.304;8.428;2023-01-26T02:50:42;2.00;99.90
46037;DHT22;31769;49.304;8.428;2023-01-26T02:53:42;2.00;99.90
46037;DHT22;31769;49.304;8.428;2023-01-26T02:56:43;1.90;99.90
46037;DHT22;31769;49.304;8.428;2023-01-26T02:59:44;1.90;99.90
46037;DHT22;31769;49.304;8.428;2023-01-26T03:02:49;1.90;99.90
46037;DHT22;31769;49.304;8.428;2023-01-26T03:05:51;1.90;99.90
46037;DHT22;31769;49.304;8.428;2023-01-26T03:08:51;1.90;99.90
46037;DHT22;31769;49.304;8.428;2023-01-26T03:11:53;2.00;99.90
46037;DHT22;31769;49.304;8.428;2023-01-26T03:14:54;2.00;99.90
46037;DHT22;31769;49.304;8.428;2023-01-26T03:18:15;2.00;99.90
46037;DHT22;31769;49.304;8.428;2023-01-26T03:21:35;1.90;99.90
46037;DHT22;31769;49.304;8.428;2023-01-26T03:24:54;1.70;99.90
46037;DHT22;31769;49.304;8.428;2023-01-26T03:28:13;1.70;99.90
46037;DHT22;31769;49.304;8.428;2023-01-26T03:31:14;1.70;99.90
46037;DHT22;31769;49.304;8.428;2023-01-26T03:34:15;1.70;99.90
46037;DHT22;31769;49.304;8.428;2023-01-26T03:37:18;1.70;99.90
46037;DHT22;31769;49.304;8.428;2023-01-26T03:40:37;1.70;99.90
46037;DHT22;31769;49.304;8.428;2023-01-26T03:43:57;1.70;99.90
46037;DHT22;31769;49.304;8.428;2023-01-26T03:47:16;1.70;99.90
46037;DHT22;31769;49.304;8.428;2023-01-26T03:50:35;1.70;99.90
46037;DHT22;31769;49.304;8.428;2023-01-26T03:53:55;1.70;99.90
46037;DHT22;31769;49.304;8.428;2023-01-26T03:57:14;1.70;99.90
46037;DHT22;31769;49.304;8.428;2023-01-26T04:00:15;1.80;99.90
46037;DHT22;31769;49.304;8.428;2023-01-26T04:03:18;1.80;99.90
46037;DHT22;31769;49.304;8.428;2023-01-26T04:06:40;1.70;99.90
46037;DHT22;31769;49.304;8.428;2023-01-26T04:09:59;1.60;99.90
46037;DHT22;31769;49.304;8.428;2023-01-26T04:13:00;1.50;99.90
46037;DHT22;31769;49.304;8.428;2023-01-26T04:16:24;1.60;99.90
46037;DHT22;31769;49.304;8.428;2023-01-26T04:19:43;1.60;99.90
46037;DHT22;31769;49.304;8.428;2023-01-26T04:23:04;1.60;99.90
46037;DHT22;31769;49.304;8.428;2023-01-26T04:26:05;1.60;99.90
46037;DHT22;31769;49.304;8.428;2023-01-26T04:29:08;1.60;99.90
46037;DHT22;31769;49.304;8.428;2023-01-26T04:32:09;1.70;99.90
46037;DHT22;31769;49.304;8.428;2023-01-26T04:35:09;1.80;99.90
46037;DHT22;31769;49.304;8.428;2023-01-26T04:38:11;1.80;99.90
46037;DHT22;31769;49.304;8.428;2023-01-26T04:41:15;1.80;99.90
46037;DHT22;31769;49.304;8.428;2023-01-26T04:44:20;1.90;99.90
46037;DHT22;31769;49.304;8.428;2023-01-26T04:47:21;1.90;99.90
46037;DHT22;31769;49.304;8.428;2023-01-26T04:50:22;1.90;99.90
46037;DHT22;31769;49.304;8.428;2023-01-26T04:53:24;1.90;99.90
46037;DHT22;31769;49.304;8.428;2023-01-26T04:56:27;1.80;99.90
46037;DHT22;31769;49.304;8.428;2023-01-26T04:59:29;1.80;99.90
46037;DHT22;31769;49.304;8.428;2023-01-26T05:02:33;1.70;99.90
46037;DHT22;31769;49.304;8.428;2023-01-26T05:05:37;1.80;99.90
46037;DHT22;31769;49.304;8.428;2023-01-26T05:08:38;1.70;99.90
46037;DHT22;31769;49.304;8.428;2023-01-26T05:11:39;1.80;99.90
46037;DHT22;31769;49.304;8.428;2023-01-26T05:15:09;1.80;99.90
46037;DHT22;31769;49.304;8.428;2023-01-26T05:18:25;1.80;99.90
46037;DHT22;31769;49.304;8.428;2023-01-26T05:21:29;1.90;99.90
46037;DHT22;31769;49.304;8.428;2023-01-26T05:24:30;1.80;99.90
46037;DHT22;31769;49.304;8.428;2023-01-26T05:27:33;1.80;99.90
46037;DHT22;31769;49.304;8.428;2023-01-26T05:30:34;1.70;99.90
46037;DHT22;31769;49.304;8.428;2023-01-26T05:33:36;1.80;99.90
46037;DHT22;31769;49.304;8.428;2023-01-26T05:36:37;1.70;99.90
46037;DHT22;31769;49.304;8.428;2023-01-26T05:39:38;1.80;99.90
46037;DHT22;31769;49.304;8.428;2023-01-26T05:42:41;1.80;99.90
46037;DHT22;31769;49.304;8.428;2023-01-26T05:46:05;1.90;99.90
46037;DHT22;31769;49.304;8.428;2023-01-26T05:49:06;1.80;99.90
46037;DHT22;31769;49.304;8.428;2023-01-26T05:52:07;1.80;99.90
46037;DHT22;31769;49.304;8.428;2023-01-26T05:55:09;1.70;99.90
46037;DHT22;31769;49.304;8.428;2023-01-26T05:58:10;1.80;99.90
46037;DHT22;31769;49.304;8.428;2023-01-26T06:01:10;1.80;99.90
46037;DHT22;31769;49.304;8.428;2023-01-26T06:04:20;1.80;99.90
46037;DHT22;31769;49.304;8.428;2023-01-26T06:07:27;1.80;99.90
46037;DHT22;31769;49.304;8.428;2023-01-26T06:10:58;1.80;99.90
46037;DHT22;31769;49.304;8.428;2023-01-26T06:14:12;1.90;99.90
46037;DHT22;31769;49.304;8.428;2023-01-26T06:17:15;1.80;99.90
46037;DHT22;31769;49.304;8.428;2023-01-26T06:20:16;1.90;99.90
46037;DHT22;31769;49.304;8.428;2023-01-26T06:23:25;2.00;99.90
46037;DHT22;31769;49.304;8.428;2023-01-26T06:26:27;2.00;99.90
46037;DHT22;31769;49.304;8.428;2023-01-26T06:29:29;2.10;99.90
46037;DHT22;31769;49.304;8.428;2023-01-26T06:32:30;2.00;99.90
46037;DHT22;31769;49.304;8.428;2023-01-26T06:35:32;2.00;99.90
46037;DHT22;31769;49.304;8.428;2023-01-26T06:38:36;2.00;99.90
46037;DHT22;31769;49.304;8.428;2023-01-26T06:41:38;2.00;99.90
46037;DHT22;31769;49.304;8.428;2023-01-26T06:44:40;2.00;99.90
46037;DHT22;31769;49.304;8.428;2023-01-26T06:47:45;1.90;99.90
46037;DHT22;31769;49.304;8.428;2023-01-26T06:50:50;1.90;99.90
46037;DHT22;31769;49.304;8.428;2023-01-26T06:53:53;2.00;99.90
46037;DHT22;31769;49.304;8.428;2023-01-26T06:57:17;2.00;99.90
46037;DHT22;31769;49.304;8.428;2023-01-26T07:00:36;2.00;99.90
46037;DHT22;31769;49.304;8.428;2023-01-26T07:03:48;2.10;99.90
46037;DHT22;31769;49.304;8.428;2023-01-26T07:06:49;2.10;99.90
46037;DHT22;31769;49.304;8.428;2023-01-26T07:09:50;2.10;99.90
46037;DHT22;31769;49.304;8.428;2023-01-26T07:12:50;2.10;99.90
46037;DHT22;31769;49.304;8.428;2023-01-26T07:15:51;2.00;99.90
46037;DHT22;31769;49.304;8.428;2023-01-26T07:18:52;2.10;99.90
46037;DHT22;31769;49.304;8.428;2023-01-26T07:21:54;2.10;99.90
46037;DHT22;31769;49.304;8.428;2023-01-26T07:24:54;2.10;99.90
46037;DHT22;31769;49.304;8.428;2023-01-26T07:27:58;2.00;99.90
46037;DHT22;31769;49.304;8.428;2023-01-26T07:30:59;2.00;99.90
46037;DHT22;31769;49.304;8.428;2023-01-26T07:34:00;2.00;99.90
46037;DHT22;31769;49.304;8.428;2023-01-26T07:37:01;2.00;99.90
46037;DHT22;31769;49.304;8.428;2023-01-26T07:40:02;2.10;99.90
46037;DHT22;31769;49.304;8.428;2023-01-26T07:43:03;2.10;99.90
46037;DHT22;31769;49.304;8.428;2023-01-26T07:46:22;2.10;99.90
46037;DHT22;31769;49.304;8.428;2023-01-26T07:49:23;2.10;99.90
46037;DHT22;31769;49.304;8.428;2023-01-26T07:52:24;2.10;99.90
46037;DHT22;31769;49.304;8.428;2023-01-26T07:55:26;2.00;99.90
46037;DHT22;31769;49.304;8.428;2023-01-26T07:58:26;1.90;99.90
46037;DHT22;31769;49.304;8.428;2023-01-26T08:01:27;1.90;99.90
46037;DHT22;31769;49.304;8.428;2023-01-26T08:04:27;1.90;99.90
46037;DHT22;31769;49.304;8.428;2023-01-26T08:07:28;1.90;99.90
46037;DHT22;31769;49.304;8.428;2023-01-26T08:10:29;1.80;99.90
46037;DHT22;31769;49.304;8.428;2023-01-26T08:13:31;1.90;99.90
46037;DHT22;31769;49.304;8.428;2023-01-26T08:16:31;1.90;99.90
46037;DHT22;31769;49.304;8.428;2023-01-26T08:19:32;1.90;99.90
46037;DHT22;31769;49.304;8.428;2023-01-26T08:22:33;1.90;99.90
46037;DHT22;31769;49.304;8.428;2023-01-26T08:25:33;1.90;99.90
46037;DHT22;31769;49.304;8.428;2023-01-26T08:28:34;1.80;99.90
46037;DHT22;31769;49.304;8.428;2023-01-26T08:31:36;1.80;99.90
46037;DHT22;31769;49.304;8.428;2023-01-26T08:34:36;1.80;99.90
46037;DHT22;31769;49.304;8.428;2023-01-26T08:37:37;1.70;99.90
46037;DHT22;31769;49.304;8.428;2023-01-26T08:40:38;1.70;99.90
46037;DHT22;31769;49.304;8.428;2023-01-26T08:43:39;1.70;99.90
46037;DHT22;31769;49.304;8.428;2023-01-26T08:46:42;1.70;99.90
46037;DHT22;31769;49.304;8.428;2023-01-26T08:49:43;1.80;99.90
46037;DHT22;31769;49.304;8.428;2023-01-26T08:52:44;1.80;99.90
46037;DHT22;31769;49.304;8.428;2023-01-26T08:55:44;1.90;99.90
46037;DHT22;31769;49.304;8.428;2023-01-26T08:58:45;1.90;99.90
46037;DHT22;31769;49.304;8.428;2023-01-26T09:01:47;1.80;99.90
46037;DHT22;31769;49.304;8.428;2023-01-26T09:04:48;1.80;99.90
46037;DHT22;31769;49.304;8.428;2023-01-26T09:07:48;1.80;99.90
46037;DHT22;31769;49.304;8.428;2023-01-26T09:10:49;1.70;99.90
46037;DHT22;31769;49.304;8.428;2023-01-26T09:13:50;1.70;99.90
46037;DHT22;31769;49.304;8.428;2023-01-26T09:16:55;1.70;99.90
46037;DHT22;31769;49.304;8.428;2023-01-26T09:19:56;1.70;99.90
46037;DHT22;31769;49.304;8.428;2023-01-26T09:22:56;1.70;99.90
46037;DHT22;31769;49.304;8.428;2023-01-26T09:25:57;1.70;99.90
46037;DHT22;31769;49.304;8.428;2023-01-26T09:28:58;1.70;99.90
46037;DHT22;31769;49.304;8.428;2023-01-26T09:31:58;1.70;99.90
46037;DHT22;31769;49.304;8.428;2023-01-26T09:34:59;1.70;99.90
46037;DHT22;31769;49.304;8.428;2023-01-26T09:37:59;1.70;99.90
46037;DHT22;31769;49.304;8.428;2023-01-26T09:41:06;1.60;99.90
46037;DHT22;31769;49.304;8.428;2023-01-26T09:44:23;1.70;99.90
46037;DHT22;31769;49.304;8.428;2023-01-26T09:48:24;1.70;99.90
46037;DHT22;31769;49.304;8.428;2023-01-26T09:51:11;1.80;99.90
46037;DHT22;31769;49.304;8.428;2023-01-26T09:54:34;1.90;99.90
46037;DHT22;31769;49.304;8.428;2023-01-26T09:57:49;1.90;99.90
46037;DHT22;31769;49.304;8.428;2023-01-26T10:00:58;1.80;99.90
46037;DHT22;31769;49.304;8.428;2023-01-26T10:04:29;1.80;99.90
46037;DHT22;31769;49.304;8.428;2023-01-26T10:07:35;1.70;99.90
46037;DHT22;31769;49.304;8.428;2023-01-26T10:10:41;1.70;99.90
46037;DHT22;31769;49.304;8.428;2023-01-26T10:13:49;1.70;99.90
46037;DHT22;31769;49.304;8.428;2023-01-26T10:16:50;1.70;99.90
46037;DHT22;31769;49.304;8.428;2023-01-26T10:19:59;1.60;99.90
46037;DHT22;31769;49.304;8.428;2023-01-26T10:23:11;1.70;99.90
46037;DHT22;31769;49.304;8.428;2023-01-26T10:26:22;1.70;99.90
46037;DHT22;31769;49.304;8.428;2023-01-26T10:29:23;1.80;99.90
46037;DHT22;31769;49.304;8.428;2023-01-26T10:32:24;1.90;99.90
46037;DHT22;31769;49.304;8.428;2023-01-26T10:35:24;2.00;99.90
46037;DHT22;31769;49.304;8.428;2023-01-26T10:41:32;2.00;99.90
46037;DHT22;31769;49.304;8.428;2023-01-26T10:44:34;2.00;99.90
46037;DHT22;31769;49.304;8.428;2023-01-26T10:47:37;2.10;99.90
46037;DHT22;31769;49.304;8.428;2023-01-26T10:50:38;2.20;99.90
46037;DHT22;31769;49.304;8.428;2023-01-26T10:53:38;2.20;99.90
46037;DHT22;31769;49.304;8.428;2023-01-26T10:56:44;2.20;99.90
46037;DHT22;31769;49.304;8.428;2023-01-26T11:02:53;2.20;99.90
46037;DHT22;31769;49.304;8.428;2023-01-26T11:06:06;2.20;99.90
46037;DHT22;31769;49.304;8.428;2023-01-26T11:12:17;2.20;99.90
46037;DHT22;31769;49.304;8.428;2023-01-26T11:15:21;2.20;99.90
46037;DHT22;31769;49.304;8.428;2023-01-26T11:22:12;2.10;99.90
46037;DHT22;31769;49.304;8.428;2023-01-26T11:32:45;2.00;99.90
46037;DHT22;31769;49.304;8.428;2023-01-26T11:36:12;1.90;99.90
46037;DHT22;31769;49.304;8.428;2023-01-26T11:46:38;2.10;99.90
46037;DHT22;31769;49.304;8.428;2023-01-26T12:03:57;2.30;99.90
46037;DHT22;31769;49.304;8.428;2023-01-26T12:06:59;2.20;99.90
46037;DHT22;31769;49.304;8.428;2023-01-26T12:10:04;2.20;99.90
46037;DHT22;31769;49.304;8.428;2023-01-26T12:13:17;2.30;99.90
46037;DHT22;31769;49.304;8.428;2023-01-26T12:19:52;2.40;99.90
46037;DHT22;31769;49.304;8.428;2023-01-26T12:26:23;2.30;99.90
46037;DHT22;31769;49.304;8.428;2023-01-26T12:29:29;2.30;99.90
46037;DHT22;31769;49.304;8.428;2023-01-26T12:32:33;2.30;99.90
46037;DHT22;31769;49.304;8.428;2023-01-26T12:35:58;2.20;99.90
46037;DHT22;31769;49.304;8.428;2023-01-26T12:39:12;2.10;99.90
46037;DHT22;31769;49.304;8.428;2023-01-26T12:45:26;2.10;99.90
46037;DHT22;31769;49.304;8.428;2023-01-26T12:48:40;2.10;99.90
46037;DHT22;31769;49.304;8.428;2023-01-26T12:52:00;2.10;99.90
46037;DHT22;31769;49.304;8.428;2023-01-26T12:55:19;2.00;99.90
46037;DHT22;31769;49.304;8.428;2023-01-26T12:58:32;2.00;99.90
46037;DHT22;31769;49.304;8.428;2023-01-26T13:01:40;1.90;99.90
46037;DHT22;31769;49.304;8.428;2023-01-26T13:04:42;1.80;99.90
46037;DHT22;31769;49.304;8.428;2023-01-26T13:07:44;1.80;99.90
46037;DHT22;31769;49.304;8.428;2023-01-26T13:10:48;1.80;99.90
46037;DHT22;31769;49.304;8.428;2023-01-26T13:13:56;1.90;99.90
46037;DHT22;31769;49.304;8.428;2023-01-26T13:20:28;2.10;99.90
46037;DHT22;31769;49.304;8.428;2023-01-26T13:23:42;2.10;99.90
46037;DHT22;31769;49.304;8.428;2023-01-26T13:26:51;2.10;99.90
46037;DHT22;31769;49.304;8.428;2023-01-26T13:29:53;1.90;99.90
46037;DHT22;31769;49.304;8.428;2023-01-26T13:33:22;1.80;99.90
46037;DHT22;31769;49.304;8.428;2023-01-26T13:36:23;1.70;99.90
46037;DHT22;31769;49.304;8.428;2023-01-26T13:39:30;1.70;99.90
46037;DHT22;31769;49.304;8.428;2023-01-26T13:42:41;1.70;99.90
46037;DHT22;31769;49.304;8.428;2023-01-26T13:48:59;1.50;99.90
46037;DHT22;31769;49.304;8.428;2023-01-26T13:52:01;1.50;99.90
46037;DHT22;31769;49.304;8.428;2023-01-26T13:55:03;1.40;99.90
46037;DHT22;31769;49.304;8.428;2023-01-26T13:58:17;1.40;99.90
46037;DHT22;31769;49.304;8.428;2023-01-26T14:01:19;1.40;99.90
46037;DHT22;31769;49.304;8.428;2023-01-26T14:04:24;1.40;99.90
46037;DHT22;31769;49.304;8.428;2023-01-26T14:07:40;1.40;99.90
46037;DHT22;31769;49.304;8.428;2023-01-26T14:10:42;1.40;99.90
46037;DHT22;31769;49.304;8.428;2023-01-26T14:13:43;1.40;99.90
46037;DHT22;31769;49.304;8.428;2023-01-26T14:16:48;1.50;99.90
46037;DHT22;31769;49.304;8.428;2023-01-26T14:19:49;1.50;99.90
46037;DHT22;31769;49.304;8.428;2023-01-26T14:26:21;1.50;99.90
46037;DHT22;31769;49.304;8.428;2023-01-26T14:29:25;1.50;99.90
46037;DHT22;31769;49.304;8.428;2023-01-26T14:32:26;1.50;99.90
46037;DHT22;31769;49.304;8.428;2023-01-26T14:35:29;1.50;99.90
46037;DHT22;31769;49.304;8.428;2023-01-26T14:38:41;1.60;99.90
46037;DHT22;31769;49.304;8.428;2023-01-26T14:41:42;1.50;99.90
46037;DHT22;31769;49.304;8.428;2023-01-26T14:44:42;1.50;99.90
46037;DHT22;31769;49.304;8.428;2023-01-26T14:47:43;1.40;99.90
46037;DHT22;31769;49.304;8.428;2023-01-26T14:50:45;1.40;99.90
46037;DHT22;31769;49.304;8.428;2023-01-26T14:54:00;1.30;99.90
46037;DHT22;31769;49.304;8.428;2023-01-26T14:57:05;1.40;99.90
46037;DHT22;31769;49.304;8.428;2023-01-26T15:00:06;1.40;99.90
46037;DHT22;31769;49.304;8.428;2023-01-26T15:06:28;1.30;99.90
46037;DHT22;31769;49.304;8.428;2023-01-26T15:09:33;1.40;99.90
46037;DHT22;31769;49.304;8.428;2023-01-26T15:12:34;1.40;99.90
46037;DHT22;31769;49.304;8.428;2023-01-26T15:15:42;1.40;99.90
46037;DHT22;31769;49.304;8.428;2023-01-26T15:18:59;1.40;99.90
46037;DHT22;31769;49.304;8.428;2023-01-26T15:22:00;1.50;99.90
46037;DHT22;31769;49.304;8.428;2023-01-26T15:25:30;1.40;99.90
46037;DHT22;31769;49.304;8.428;2023-01-26T15:28:31;1.40;99.90
46037;DHT22;31769;49.304;8.428;2023-01-26T15:31:34;1.40;99.90
46037;DHT22;31769;49.304;8.428;2023-01-26T15:34:38;1.40;99.90
46037;DHT22;31769;49.304;8.428;2023-01-26T15:37:39;1.40;99.90
46037;DHT22;31769;49.304;8.428;2023-01-26T15:40:40;1.40;99.90
46037;DHT22;31769;49.304;8.428;2023-01-26T15:43:41;1.40;99.90
46037;DHT22;31769;49.304;8.428;2023-01-26T15:46:42;1.40;99.90
46037;DHT22;31769;49.304;8.428;2023-01-26T15:49:42;1.40;99.90
46037;DHT22;31769;49.304;8.428;2023-01-26T15:52:43;1.50;99.90
46037;DHT22;31769;49.304;8.428;2023-01-26T15:55:44;1.50;99.90
46037;DHT22;31769;49.304;8.428;2023-01-26T15:58:46;1.50;99.90
46037;DHT22;31769;49.304;8.428;2023-01-26T16:01:46;1.60;99.90
46037;DHT22;31769;49.304;8.428;2023-01-26T16:04:47;1.60;99.90
46037;DHT22;31769;49.304;8.428;2023-01-26T16:07:48;1.60;99.90
46037;DHT22;31769;49.304;8.428;2023-01-26T16:10:48;1.60;99.90
46037;DHT22;31769;49.304;8.428;2023-01-26T16:13:49;1.70;99.90
46037;DHT22;31769;49.304;8.428;2023-01-26T16:16:52;1.60;99.90
46037;DHT22;31769;49.304;8.428;2023-01-26T16:19:52;1.70;99.90
46037;DHT22;31769;49.304;8.428;2023-01-26T16:22:53;1.60;99.90
46037;DHT22;31769;49.304;8.428;2023-01-26T16:25:54;1.60;99.90
46037;DHT22;31769;49.304;8.428;2023-01-26T16:28:55;1.60;99.90
46037;DHT22;31769;49.304;8.428;2023-01-26T16:31:57;1.60;99.90
46037;DHT22;31769;49.304;8.428;2023-01-26T16:34:58;1.60;99.90
46037;DHT22;31769;49.304;8.428;2023-01-26T16:37:58;1.50;99.90
46037;DHT22;31769;49.304;8.428;2023-01-26T16:40:59;1.50;99.90
46037;DHT22;31769;49.304;8.428;2023-01-26T16:44:01;1.50;99.90
46037;DHT22;31769;49.304;8.428;2023-01-26T16:47:03;1.60;99.90
46037;DHT22;31769;49.304;8.428;2023-01-26T16:50:05;1.60;99.90
46037;DHT22;31769;49.304;8.428;2023-01-26T16:53:27;1.60;99.90
46037;DHT22;31769;49.304;8.428;2023-01-26T16:56:27;1.60;99.90
46037;DHT22;31769;49.304;8.428;2023-01-26T16:59:28;1.60;99.90
46037;DHT22;31769;49.304;8.428;2023-01-26T17:02:32;1.60;99.90
46037;DHT22;31769;49.304;8.428;2023-01-26T17:05:34;1.60;99.90
46037;DHT22;31769;49.304;8.428;2023-01-26T17:08:34;1.60;99.90
46037;DHT22;31769;49.304;8.428;2023-01-26T17:11:35;1.60;99.90
46037;DHT22;31769;49.304;8.428;2023-01-26T17:14:36;1.50;99.90
46037;DHT22;31769;49.304;8.428;2023-01-26T17:17:36;1.50;99.90
46037;DHT22;31769;49.304;8.428;2023-01-26T17:20:38;1.60;99.90
46037;DHT22;31769;49.304;8.428;2023-01-26T17:23:40;1.50;99.90
46037;DHT22;31769;49.304;8.428;2023-01-26T17:26:43;1.60;99.90
46037;DHT22;31769;49.304;8.428;2023-01-26T17:29:44;1.60;99.90
46037;DHT22;31769;49.304;8.428;2023-01-26T17:32:46;1.60;99.90
46037;DHT22;31769;49.304;8.428;2023-01-26T17:35:47;1.60;99.90
46037;DHT22;31769;49.304;8.428;2023-01-26T17:38:48;1.60;99.90
46037;DHT22;31769;49.304;8.428;2023-01-26T17:41:48;1.60;99.90
46037;DHT22;31769;49.304;8.428;2023-01-26T17:44:49;1.60;99.90
46037;DHT22;31769;49.304;8.428;2023-01-26T17:47:50;1.50;99.90
46037;DHT22;31769;49.304;8.428;2023-01-26T17:50:51;1.50;99.90
46037;DHT22;31769;49.304;8.428;2023-01-26T17:53:51;1.40;99.90
46037;DHT22;31769;49.304;8.428;2023-01-26T17:56:53;1.40;99.90
46037;DHT22;31769;49.304;8.428;2023-01-26T17:59:55;1.40;99.90
46037;DHT22;31769;49.304;8.428;2023-01-26T18:02:55;1.40;99.90
46037;DHT22;31769;49.304;8.428;2023-01-26T18:05:57;1.50;99.90
46037;DHT22;31769;49.304;8.428;2023-01-26T18:09:01;1.40;99.90
46037;DHT22;31769;49.304;8.428;2023-01-26T18:12:01;1.60;99.90
46037;DHT22;31769;49.304;8.428;2023-01-26T18:15:03;1.60;99.90
46037;DHT22;31769;49.304;8.428;2023-01-26T18:18:10;1.50;99.90
46037;DHT22;31769;49.304;8.428;2023-01-26T18:21:26;1.50;99.90
46037;DHT22;31769;49.304;8.428;2023-01-26T18:24:26;1.50;99.90
46037;DHT22;31769;49.304;8.428;2023-01-26T18:27:27;1.60;99.90
46037;DHT22;31769;49.304;8.428;2023-01-26T18:30:28;1.60;99.90
46037;DHT22;31769;49.304;8.428;2023-01-26T18:33:29;1.60;99.90
46037;DHT22;31769;49.304;8.428;2023-01-26T18:36:30;1.60;99.90
46037;DHT22;31769;49.304;8.428;2023-01-26T18:39:31;1.70;99.90
46037;DHT22;31769;49.304;8.428;2023-01-26T18:42:32;1.60;99.90
46037;DHT22;31769;49.304;8.428;2023-01-26T18:45:33;1.70;99.90
46037;DHT22;31769;49.304;8.428;2023-01-26T18:48:34;1.60;99.90
46037;DHT22;31769;49.304;8.428;2023-01-26T18:51:35;1.70;99.90
46037;DHT22;31769;49.304;8.428;2023-01-26T18:54:36;1.60;99.90
46037;DHT22;31769;49.304;8.428;2023-01-26T18:57:36;1.60;99.90
46037;DHT22;31769;49.304;8.428;2023-01-26T19:00:37;1.60;99.90
46037;DHT22;31769;49.304;8.428;2023-01-26T19:03:39;1.60;99.90
46037;DHT22;31769;49.304;8.428;2023-01-26T19:06:46;1.70;99.90
46037;DHT22;31769;49.304;8.428;2023-01-26T19:09:47;1.60;99.90
46037;DHT22;31769;49.304;8.428;2023-01-26T19:12:48;1.60;99.90
46037;DHT22;31769;49.304;8.428;2023-01-26T19:15:49;1.60;99.90
46037;DHT22;31769;49.304;8.428;2023-01-26T19:18:51;1.50;99.90
46037;DHT22;31769;49.304;8.428;2023-01-26T19:21:51;1.50;99.90
46037;DHT22;31769;49.304;8.428;2023-01-26T19:24:52;1.50;99.90
46037;DHT22;31769;49.304;8.428;2023-01-26T19:27:53;1.50;99.90
46037;DHT22;31769;49.304;8.428;2023-01-26T19:35:16;1.60;99.90
46037;DHT22;31769;49.304;8.428;2023-01-26T19:38:18;1.70;99.90
46037;DHT22;31769;49.304;8.428;2023-01-26T19:41:20;1.70;99.90
46037;DHT22;31769;49.304;8.428;2023-01-26T19:44:20;1.60;99.90
46037;DHT22;31769;49.304;8.428;2023-01-26T19:47:21;1.60;99.90
46037;DHT22;31769;49.304;8.428;2023-01-26T19:50:22;1.60;99.90
46037;DHT22;31769;49.304;8.428;2023-01-26T19:53:22;1.50;99.90
46037;DHT22;31769;49.304;8.428;2023-01-26T19:56:31;1.60;99.90
46037;DHT22;31769;49.304;8.428;2023-01-26T19:59:34;1.70;99.90
46037;DHT22;31769;49.304;8.428;2023-01-26T20:02:35;1.70;99.90
46037;DHT22;31769;49.304;8.428;2023-01-26T20:05:35;1.60;99.90
46037;DHT22;31769;49.304;8.428;2023-01-26T20:08:36;1.70;99.90
46037;DHT22;31769;49.304;8.428;2023-01-26T20:11:37;1.70;99.90
46037;DHT22;31769;49.304;8.428;2023-01-26T20:14:38;1.50;99.90
46037;DHT22;31769;49.304;8.428;2023-01-26T20:17:38;1.60;99.90
46037;DHT22;31769;49.304;8.428;2023-01-26T20:20:39;1.60;99.90
46037;DHT22;31769;49.304;8.428;2023-01-26T20:23:40;1.50;99.90
46037;DHT22;31769;49.304;8.428;2023-01-26T20:26:42;1.50;99.90
46037;DHT22;31769;49.304;8.428;2023-01-26T20:29:43;1.50;99.90
46037;DHT22;31769;49.304;8.428;2023-01-26T20:32:44;2.20;99.90
46037;DHT22;31769;49.304;8.428;2023-01-26T20:35:45;1.40;99.90
46037;DHT22;31769;49.304;8.428;2023-01-26T20:38:46;1.40;99.90
46037;DHT22;31769;49.304;8.428;2023-01-26T20:41:47;1.40;99.90
46037;DHT22;31769;49.304;8.428;2023-01-26T20:44:48;1.30;99.90
46037;DHT22;31769;49.304;8.428;2023-01-26T20:47:49;1.20;99.90
46037;DHT22;31769;49.304;8.428;2023-01-26T20:50:50;1.20;99.90
46037;DHT22;31769;49.304;8.428;2023-01-26T20:53:52;1.30;99.90
46037;DHT22;31769;49.304;8.428;2023-01-26T20:56:52;1.30;99.90
46037;DHT22;31769;49.304;8.428;2023-01-26T20:59:53;1.40;99.90